createdAt,value
2017-12-15T00:00:58.176Z,34.98
2017-12-15T00:01:58.136Z,21.04
2017-12-15T00:02:58.090Z,16.97
2017-12-15T00:03:58.071Z,25.59
2017-12-15T00:04:58.008Z,23.41
2017-12-15T00:05:57.970Z,23.88
2017-12-15T00:06:57.926Z,28.44
2017-12-15T00:07:57.885Z,21.33
2017-12-15T00:08:57.867Z,21.33
2017-12-15T00:09:57.882Z,26.45
2017-12-15T00:10:57.760Z,29.48
2017-12-15T00:11:57.720Z,28.06
2017-12-15T00:12:57.680Z,27.30
2017-12-15T00:13:57.637Z,32.51
2017-12-15T00:14:57.605Z,34.50
2017-12-15T00:15:57.564Z,30.62
2017-12-15T00:16:57.513Z,21.14
2017-12-15T00:17:57.474Z,20.00
2017-12-15T00:18:57.429Z,17.91
2017-12-15T00:19:57.391Z,29.19
2017-12-15T00:20:57.349Z,32.32
2017-12-15T00:21:57.307Z,29.57
2017-12-15T00:22:57.265Z,30.62
2017-12-15T00:23:57.234Z,27.01
2017-12-15T00:24:57.182Z,28.91
2017-12-15T00:25:57.140Z,26.54
2017-12-15T00:26:57.100Z,28.34
2017-12-15T00:27:57.057Z,30.62
2017-12-15T00:28:57.015Z,36.40
2017-12-15T00:29:56.978Z,23.60
2017-12-15T00:30:56.933Z,20.66
2017-12-15T00:31:56.894Z,21.61
2017-12-15T00:32:56.851Z,23.98
2017-12-15T00:33:56.811Z,23.88
2017-12-15T00:34:56.768Z,28.81
2017-12-15T00:35:56.744Z,25.12
2017-12-15T00:36:56.689Z,23.79
2017-12-15T00:37:56.647Z,35.07
2017-12-15T00:38:56.609Z,27.49
2017-12-15T00:39:56.567Z,25.02
2017-12-15T00:40:56.522Z,21.14
2017-12-15T00:41:56.493Z,28.81
2017-12-15T00:42:56.438Z,31.37
2017-12-15T00:43:56.404Z,22.37
2017-12-15T00:44:56.358Z,28.81
2017-12-15T00:45:56.315Z,37.63
2017-12-15T00:46:56.276Z,29.86
2017-12-15T00:47:56.234Z,25.78
2017-12-15T00:48:56.194Z,32.60
2017-12-15T00:49:56.153Z,26.16
2017-12-15T00:50:56.114Z,27.96
2017-12-15T00:51:56.074Z,29.10
2017-12-15T00:52:56.044Z,29.29
2017-12-15T00:53:55.985Z,26.92
2017-12-15T00:54:55.949Z,15.83
2017-12-15T00:55:55.910Z,16.49
2017-12-15T00:56:55.868Z,22.85
2017-12-15T00:57:55.820Z,20.76
2017-12-15T00:58:55.780Z,28.63
2017-12-15T00:59:55.746Z,23.03
2017-12-15T01:00:55.697Z,26.92
2017-12-15T01:01:55.658Z,26.26
2017-12-15T01:02:55.614Z,26.45
2017-12-15T01:03:55.574Z,28.53
2017-12-15T01:04:55.530Z,32.51
2017-12-15T01:05:55.493Z,24.74
2017-12-15T01:06:55.450Z,20.95
2017-12-15T01:07:55.413Z,22.08
2017-12-15T01:08:55.366Z,22.56
2017-12-15T01:09:55.342Z,22.56
2017-12-15T01:10:55.285Z,20.38
2017-12-15T01:11:55.326Z,23.03
2017-12-15T01:12:55.208Z,22.46
2017-12-15T01:13:55.162Z,22.27
2017-12-15T01:14:55.117Z,20.95
2017-12-15T01:15:55.077Z,34.50
2017-12-15T01:16:55.041Z,29.57
2017-12-15T01:17:54.995Z,25.40
2017-12-15T01:18:54.955Z,24.17
2017-12-15T01:19:54.912Z,29.86
2017-12-15T01:20:54.870Z,20.38
2017-12-15T01:21:54.830Z,16.97
2017-12-15T01:22:54.790Z,20.47
2017-12-15T01:23:54.748Z,25.88
2017-12-15T01:24:54.722Z,29.00
2017-12-15T01:25:54.668Z,23.22
2017-12-15T01:26:54.629Z,32.60
2017-12-15T01:27:54.582Z,22.85
2017-12-15T01:28:54.551Z,20.09
2017-12-15T01:29:54.497Z,32.23
2017-12-15T01:30:54.466Z,27.20
2017-12-15T01:31:54.486Z,20.76
2017-12-15T01:32:54.372Z,23.22
2017-12-15T01:33:54.333Z,29.19
2017-12-15T01:34:54.290Z,22.85
2017-12-15T01:35:54.248Z,18.29
2017-12-15T01:36:54.215Z,20.37
2017-12-15T01:37:54.172Z,23.59
2017-12-15T01:38:54.126Z,28.42
2017-12-15T01:39:54.090Z,30.51
2017-12-15T01:40:54.040Z,28.70
2017-12-15T01:41:54.001Z,18.85
2017-12-15T01:42:53.961Z,23.49
2017-12-15T01:43:53.921Z,21.03
2017-12-15T01:44:53.906Z,16.39
2017-12-15T01:45:53.851Z,17.43
2017-12-15T01:46:53.807Z,12.70
2017-12-15T01:47:53.748Z,12.98
2017-12-15T01:48:53.719Z,16.30
2017-12-15T01:49:53.674Z,19.13
2017-12-15T01:50:53.625Z,14.40
2017-12-15T01:51:53.592Z,16.77
2017-12-15T01:52:53.569Z,13.35
2017-12-15T01:53:53.498Z,17.52
2017-12-15T01:54:53.457Z,19.23
2017-12-15T01:55:53.443Z,14.78
2017-12-15T01:56:53.392Z,8.72
2017-12-15T01:57:53.345Z,6.44
2017-12-15T01:58:53.291Z,16.47
2017-12-15T01:59:53.253Z,18.75
2017-12-15T02:00:53.211Z,16.77
2017-12-15T02:01:53.163Z,18.94
2017-12-15T02:02:53.163Z,11.46
2017-12-15T02:03:53.079Z,10.22
2017-12-15T02:04:53.052Z,10.79
2017-12-15T02:05:52.996Z,8.90
2017-12-15T02:06:52.953Z,13.35
2017-12-15T02:07:52.917Z,7.48
2017-12-15T02:08:52.877Z,8.34
2017-12-15T02:09:52.868Z,8.42
2017-12-15T02:10:52.835Z,9.28
2017-12-15T02:11:52.760Z,4.54
2017-12-15T02:12:52.700Z,1.98
2017-12-15T02:13:52.667Z,0.00
2017-12-15T02:14:52.620Z,1.23
2017-12-15T02:15:52.581Z,5.02
2017-12-15T02:16:52.534Z,10.70
2017-12-15T02:17:52.497Z,7.57
2017-12-15T02:18:52.458Z,3.31
2017-12-15T02:19:52.405Z,3.69
2017-12-15T02:20:52.376Z,0.28
2017-12-15T02:21:52.342Z,0.00
2017-12-15T02:22:52.279Z,0.00
2017-12-15T02:23:52.250Z,2.27
2017-12-15T02:24:52.195Z,12.31
2017-12-15T02:25:52.164Z,12.02
2017-12-15T02:26:52.112Z,9.28
2017-12-15T02:27:52.074Z,6.91
2017-12-15T02:28:52.028Z,6.82
2017-12-15T02:29:51.985Z,4.16
2017-12-15T02:30:51.944Z,9.84
2017-12-15T02:31:51.915Z,13.54
2017-12-15T02:32:51.860Z,15.05
2017-12-15T02:33:51.818Z,8.33
2017-12-15T02:34:51.774Z,5.77
2017-12-15T02:35:51.730Z,7.29
2017-12-15T02:36:51.692Z,5.30
2017-12-15T02:37:51.647Z,6.15
2017-12-15T02:38:51.603Z,8.42
2017-12-15T02:39:51.561Z,8.52
2017-12-15T02:40:51.532Z,3.88
2017-12-15T02:41:51.483Z,2.65
2017-12-15T02:42:51.438Z,6.91
2017-12-15T02:43:51.393Z,3.31
2017-12-15T02:44:51.350Z,3.31
2017-12-15T02:45:51.307Z,7.29
2017-12-15T02:46:51.266Z,8.33
2017-12-15T02:47:51.224Z,8.99
2017-12-15T02:48:51.184Z,6.06
2017-12-15T02:49:51.142Z,6.34
2017-12-15T02:50:51.096Z,8.61
2017-12-15T02:51:51.056Z,10.03
2017-12-15T02:52:51.021Z,6.34
2017-12-15T02:53:50.972Z,6.25
2017-12-15T02:54:50.928Z,8.33
2017-12-15T02:55:50.889Z,9.47
2017-12-15T02:56:50.842Z,8.33
2017-12-15T02:57:50.801Z,9.09
2017-12-15T02:58:50.755Z,8.71
2017-12-15T02:59:50.716Z,4.83
2017-12-15T03:00:50.673Z,4.92
2017-12-15T03:01:50.649Z,7.67
2017-12-15T03:02:50.590Z,10.32
2017-12-15T03:03:50.546Z,8.90
2017-12-15T03:04:50.513Z,7.01
2017-12-15T03:05:50.470Z,5.77
2017-12-15T03:06:50.417Z,7.57
2017-12-15T03:07:50.376Z,8.23
2017-12-15T03:08:50.333Z,7.48
2017-12-15T03:09:50.293Z,6.44
2017-12-15T03:10:50.260Z,6.34
2017-12-15T03:11:50.208Z,7.76
2017-12-15T03:12:50.185Z,4.83
2017-12-15T03:13:50.123Z,0.66
2017-12-15T03:14:50.080Z,0.00
2017-12-15T03:15:50.039Z,0.00
2017-12-15T03:16:49.996Z,0.00
2017-12-15T03:17:49.955Z,0.00
2017-12-15T03:18:49.908Z,0.00
2017-12-15T03:19:49.876Z,0.00
2017-12-15T03:20:49.826Z,0.00
2017-12-15T03:21:49.782Z,0.00
2017-12-15T03:22:49.741Z,0.00
2017-12-15T03:23:49.710Z,0.00
2017-12-15T03:24:49.658Z,0.00
2017-12-15T03:25:49.623Z,0.00
2017-12-15T03:26:49.569Z,0.00
2017-12-15T03:27:49.533Z,0.00
2017-12-15T03:28:49.503Z,0.00
2017-12-15T03:29:49.445Z,0.00
2017-12-15T03:30:49.403Z,0.00
2017-12-15T03:31:49.357Z,0.00
2017-12-15T03:32:49.317Z,0.00
2017-12-15T03:33:49.276Z,0.47
2017-12-15T03:34:49.231Z,2.17
2017-12-15T03:35:49.187Z,4.64
2017-12-15T03:36:49.145Z,5.21
2017-12-15T03:37:49.106Z,3.41
2017-12-15T03:38:49.063Z,3.69
2017-12-15T03:39:49.018Z,5.68
2017-12-15T03:40:48.978Z,4.64
2017-12-15T03:41:48.941Z,5.11
2017-12-15T03:42:48.892Z,7.20
2017-12-15T03:43:48.847Z,9.28
2017-12-15T03:44:48.806Z,6.44
2017-12-15T03:45:48.771Z,3.59
2017-12-15T03:46:48.720Z,4.64
2017-12-15T03:47:48.678Z,0.00
2017-12-15T03:48:48.637Z,3.50
2017-12-15T03:49:48.595Z,5.49
2017-12-15T03:50:48.557Z,4.64
2017-12-15T03:51:48.523Z,3.78
2017-12-15T03:52:48.470Z,0.85
2017-12-15T03:53:48.426Z,0.00
2017-12-15T03:54:48.393Z,0.47
2017-12-15T03:55:48.341Z,0.85
2017-12-15T03:56:48.295Z,0.76
2017-12-15T03:57:48.254Z,2.93
2017-12-15T03:58:48.214Z,3.31
2017-12-15T03:59:48.171Z,3.50
2017-12-15T04:00:48.133Z,4.16
2017-12-15T04:01:49.077Z,3.22
2017-12-15T04:02:48.045Z,0.00
2017-12-15T04:03:48.000Z,0.00
2017-12-15T04:04:47.958Z,0.00
2017-12-15T04:05:47.917Z,0.00
2017-12-15T04:06:47.872Z,0.00
2017-12-15T04:07:47.830Z,0.00
2017-12-15T04:08:47.791Z,0.00
2017-12-15T04:09:47.749Z,0.00
2017-12-15T04:10:47.702Z,0.00
2017-12-15T04:11:47.661Z,1.70
2017-12-15T04:12:47.618Z,1.98
2017-12-15T04:13:47.584Z,4.16
2017-12-15T04:14:47.535Z,9.47
2017-12-15T04:15:47.492Z,11.55
2017-12-15T04:16:47.448Z,11.74
2017-12-15T04:17:47.419Z,11.27
2017-12-15T04:18:47.364Z,11.83
2017-12-15T04:19:47.324Z,10.70
2017-12-15T04:20:47.285Z,8.80
2017-12-15T04:21:47.247Z,6.91
2017-12-15T04:22:47.196Z,6.06
2017-12-15T04:23:47.150Z,5.49
2017-12-15T04:24:47.112Z,5.87
2017-12-15T04:25:47.071Z,5.96
2017-12-15T04:26:47.026Z,5.87
2017-12-15T04:27:46.982Z,5.40
2017-12-15T04:28:46.941Z,3.78
2017-12-15T04:29:46.897Z,0.85
2017-12-15T04:30:46.855Z,2.46
2017-12-15T04:31:46.815Z,5.30
2017-12-15T04:32:46.776Z,3.50
2017-12-15T04:33:46.729Z,3.78
2017-12-15T04:34:46.682Z,4.26
2017-12-15T04:35:46.643Z,4.64
2017-12-15T04:36:46.608Z,3.22
2017-12-15T04:37:46.558Z,4.16
2017-12-15T04:38:46.519Z,3.50
2017-12-15T04:39:46.472Z,0.85
2017-12-15T04:40:46.951Z,1.04
2017-12-15T04:41:46.389Z,2.55
2017-12-15T04:42:46.345Z,0.00
2017-12-15T04:43:46.304Z,0.00
2017-12-15T04:44:46.261Z,0.00
2017-12-15T04:45:46.219Z,0.00
2017-12-15T04:46:46.185Z,1.51
2017-12-15T04:47:46.134Z,1.98
2017-12-15T04:48:46.092Z,2.55
2017-12-15T04:49:46.065Z,2.46
2017-12-15T04:50:46.006Z,0.19
2017-12-15T04:51:45.965Z,0.00
2017-12-15T04:52:45.919Z,0.00
2017-12-15T04:53:45.881Z,0.00
2017-12-15T04:54:45.836Z,0.00
2017-12-15T04:55:45.792Z,0.00
2017-12-15T04:56:45.752Z,0.00
2017-12-15T04:57:45.710Z,0.00
2017-12-15T04:58:45.665Z,0.00
2017-12-15T04:59:45.633Z,0.19
2017-12-15T05:00:45.585Z,0.57
2017-12-15T05:01:45.545Z,0.00
2017-12-15T05:02:45.497Z,0.00
2017-12-15T05:03:45.454Z,0.00
2017-12-15T05:04:45.438Z,0.00
2017-12-15T05:05:45.514Z,0.00
2017-12-15T05:06:45.386Z,0.00
2017-12-15T05:07:45.286Z,0.00
2017-12-15T05:08:45.243Z,0.00
2017-12-15T05:09:45.204Z,0.00
2017-12-15T05:10:45.159Z,0.00
2017-12-15T05:11:45.132Z,0.00
2017-12-15T05:12:45.073Z,0.00
2017-12-15T05:13:45.031Z,0.00
2017-12-15T05:14:44.988Z,0.00
2017-12-15T05:15:44.955Z,0.00
2017-12-15T05:16:44.915Z,0.76
2017-12-15T05:17:44.867Z,3.03
2017-12-15T05:18:44.841Z,4.07
2017-12-15T05:19:44.778Z,5.49
2017-12-15T05:20:44.843Z,5.11
2017-12-15T05:21:44.694Z,4.16
2017-12-15T05:22:44.649Z,4.26
2017-12-15T05:23:44.615Z,3.59
2017-12-15T05:24:44.569Z,3.03
2017-12-15T05:25:44.531Z,3.31
2017-12-15T05:26:44.489Z,4.73
2017-12-15T05:27:44.438Z,6.34
2017-12-15T05:28:44.400Z,6.25
2017-12-15T05:29:44.353Z,7.10
2017-12-15T05:30:44.313Z,7.29
2017-12-15T05:31:44.272Z,6.06
2017-12-15T05:32:44.240Z,8.52
2017-12-15T05:33:44.187Z,9.66
2017-12-15T05:34:44.148Z,9.38
2017-12-15T05:35:44.102Z,11.27
2017-12-15T05:36:44.060Z,11.17
2017-12-15T05:37:44.019Z,11.27
2017-12-15T05:38:43.983Z,11.08
2017-12-15T05:39:43.941Z,13.92
2017-12-15T05:40:43.895Z,15.72
2017-12-15T05:41:43.853Z,15.81
2017-12-15T05:42:43.817Z,14.77
2017-12-15T05:43:43.774Z,13.73
2017-12-15T05:44:43.726Z,13.83
2017-12-15T05:45:43.685Z,16.19
2017-12-15T05:46:43.641Z,16.47
2017-12-15T05:47:43.603Z,16.57
2017-12-15T05:48:43.561Z,17.04
2017-12-15T05:49:43.516Z,15.72
2017-12-15T05:50:43.473Z,16.00
2017-12-15T05:51:43.449Z,17.71
2017-12-15T05:52:43.392Z,16.66
2017-12-15T05:53:43.349Z,15.72
2017-12-15T05:54:43.305Z,15.05
2017-12-15T05:55:43.270Z,14.48
2017-12-15T05:56:43.232Z,13.92
2017-12-15T05:57:43.180Z,14.01
2017-12-15T05:58:43.144Z,13.82
2017-12-15T05:59:43.102Z,14.11
2017-12-15T06:00:43.054Z,13.07
2017-12-15T06:01:43.016Z,10.79
2017-12-15T06:02:42.976Z,9.47
2017-12-15T06:03:42.938Z,9.75
2017-12-15T06:04:42.946Z,10.51
2017-12-15T06:05:42.849Z,10.79
2017-12-15T06:06:42.802Z,11.27
2017-12-15T06:07:42.761Z,11.27
2017-12-15T06:08:42.718Z,11.27
2017-12-15T06:09:42.688Z,12.69
2017-12-15T06:10:42.635Z,13.07
2017-12-15T06:11:42.592Z,11.36
2017-12-15T06:12:42.557Z,11.17
2017-12-15T06:13:42.516Z,11.27
2017-12-15T06:14:42.469Z,10.98
2017-12-15T06:15:42.426Z,11.74
2017-12-15T06:16:42.382Z,12.02
2017-12-15T06:17:42.368Z,10.42
2017-12-15T06:18:42.307Z,9.28
2017-12-15T06:19:42.260Z,5.02
2017-12-15T06:20:42.261Z,7.67
2017-12-15T06:21:42.195Z,8.91
2017-12-15T06:22:42.147Z,11.55
2017-12-15T06:23:42.090Z,11.08
2017-12-15T06:24:42.055Z,10.89
2017-12-15T06:25:42.006Z,10.99
2017-12-15T06:26:41.970Z,11.55
2017-12-15T06:27:41.925Z,11.27
2017-12-15T06:28:41.879Z,13.35
2017-12-15T06:29:41.852Z,14.50
2017-12-15T06:30:41.795Z,14.78
2017-12-15T06:31:41.756Z,15.82
2017-12-15T06:32:41.712Z,14.69
2017-12-15T06:33:41.689Z,18.09
2017-12-15T06:34:41.632Z,19.23
2017-12-15T06:35:41.593Z,17.62
2017-12-15T06:36:41.546Z,18.76
2017-12-15T06:37:41.509Z,17.52
2017-12-15T06:38:41.474Z,16.58
2017-12-15T06:39:41.421Z,16.67
2017-12-15T06:40:41.441Z,17.52
2017-12-15T06:41:41.374Z,16.39
2017-12-15T06:42:41.296Z,17.52
2017-12-15T06:43:41.264Z,20.65
2017-12-15T06:44:41.230Z,19.99
2017-12-15T06:45:41.170Z,17.43
2017-12-15T06:46:41.138Z,18.29
2017-12-15T06:47:41.088Z,14.40
2017-12-15T06:48:41.050Z,18.09
2017-12-15T06:49:41.019Z,15.82
2017-12-15T06:50:40.967Z,16.39
2017-12-15T06:51:40.922Z,20.08
2017-12-15T06:52:40.877Z,19.32
2017-12-15T06:53:40.837Z,19.89
2017-12-15T06:54:40.794Z,21.12
2017-12-15T06:55:40.752Z,20.18
2017-12-15T06:56:40.710Z,19.70
2017-12-15T06:57:40.671Z,20.37
2017-12-15T06:58:40.628Z,17.43
2017-12-15T06:59:40.589Z,18.09
2017-12-15T07:00:40.552Z,17.90
2017-12-15T07:01:40.531Z,18.76
2017-12-15T07:02:40.483Z,19.51
2017-12-15T07:03:40.418Z,19.80
2017-12-15T07:04:40.382Z,16.10
2017-12-15T07:05:40.354Z,16.39
2017-12-15T07:06:40.296Z,12.13
2017-12-15T07:07:40.265Z,12.22
2017-12-15T07:08:40.209Z,12.13
2017-12-15T07:09:40.168Z,13.73
2017-12-15T07:10:40.130Z,11.74
2017-12-15T07:11:40.093Z,10.71
2017-12-15T07:12:40.048Z,15.44
2017-12-15T07:13:40.002Z,16.58
2017-12-15T07:14:39.958Z,17.52
2017-12-15T07:15:39.918Z,16.49
2017-12-15T07:16:39.880Z,17.24
2017-12-15T07:17:39.846Z,17.43
2017-12-15T07:18:39.790Z,18.66
2017-12-15T07:19:39.752Z,16.01
2017-12-15T07:20:39.708Z,14.40
2017-12-15T07:21:39.665Z,15.91
2017-12-15T07:22:39.641Z,16.01
2017-12-15T07:23:39.582Z,14.11
2017-12-15T07:24:39.553Z,14.21
2017-12-15T07:25:39.498Z,13.26
2017-12-15T07:26:39.461Z,15.53
2017-12-15T07:27:39.420Z,15.63
2017-12-15T07:28:39.380Z,15.53
2017-12-15T07:29:39.341Z,15.72
2017-12-15T07:30:39.287Z,15.34
2017-12-15T07:31:39.251Z,14.31
2017-12-15T07:32:39.200Z,14.02
2017-12-15T07:33:39.201Z,13.82
2017-12-15T07:34:39.127Z,13.45
2017-12-15T07:35:39.081Z,12.69
2017-12-15T07:36:39.047Z,10.33
2017-12-15T07:37:38.994Z,11.93
2017-12-15T07:38:38.957Z,13.07
2017-12-15T07:39:38.913Z,13.45
2017-12-15T07:40:38.871Z,11.74
2017-12-15T07:41:38.829Z,12.40
2017-12-15T07:42:38.795Z,11.93
2017-12-15T07:43:38.759Z,12.12
2017-12-15T07:44:38.702Z,11.27
2017-12-15T07:45:38.661Z,13.07
2017-12-15T07:46:38.628Z,11.83
2017-12-15T07:47:38.597Z,12.69
2017-12-15T07:48:38.559Z,14.11
2017-12-15T07:49:38.508Z,14.29
2017-12-15T07:50:38.452Z,14.48
2017-12-15T07:51:38.408Z,12.69
2017-12-15T07:52:38.367Z,10.98
2017-12-15T07:53:38.324Z,12.02
2017-12-15T07:54:38.283Z,11.93
2017-12-15T07:55:38.239Z,11.83
2017-12-15T07:56:38.199Z,12.59
2017-12-15T07:57:38.157Z,12.51
2017-12-15T07:58:38.116Z,10.33
2017-12-15T07:59:38.071Z,8.72
2017-12-15T08:00:38.031Z,9.94
2017-12-15T08:01:37.990Z,12.88
2017-12-15T08:02:37.949Z,13.54
2017-12-15T08:03:37.905Z,12.98
2017-12-15T08:04:37.872Z,14.67
2017-12-15T08:05:37.830Z,16.01
2017-12-15T08:06:37.782Z,16.30
2017-12-15T08:07:37.738Z,17.04
2017-12-15T08:08:37.726Z,17.24
2017-12-15T08:09:37.657Z,17.24
2017-12-15T08:10:37.613Z,14.87
2017-12-15T08:11:37.581Z,15.25
2017-12-15T08:12:37.537Z,15.82
2017-12-15T08:13:37.483Z,16.67
2017-12-15T08:14:37.448Z,15.53
2017-12-15T08:15:37.411Z,14.02
2017-12-15T08:16:37.362Z,14.50
2017-12-15T08:17:37.319Z,15.91
2017-12-15T08:18:37.276Z,15.91
2017-12-15T08:19:37.241Z,18.19
2017-12-15T08:20:37.192Z,19.04
2017-12-15T08:21:37.155Z,18.66
2017-12-15T08:22:37.115Z,17.52
2017-12-15T08:23:37.068Z,13.92
2017-12-15T08:24:37.025Z,13.45
2017-12-15T08:25:37.011Z,10.61
2017-12-15T08:26:36.943Z,12.13
2017-12-15T08:27:36.900Z,14.78
2017-12-15T08:28:36.859Z,15.34
2017-12-15T08:29:36.817Z,17.33
2017-12-15T08:30:36.786Z,17.81
2017-12-15T08:31:36.745Z,19.23
2017-12-15T08:32:36.699Z,18.66
2017-12-15T08:33:36.650Z,19.80
2017-12-15T08:34:36.607Z,19.51
2017-12-15T08:35:36.569Z,20.08
2017-12-15T08:36:36.528Z,20.37
2017-12-15T08:37:36.484Z,21.69
2017-12-15T08:38:36.445Z,21.31
2017-12-15T08:39:36.412Z,23.97
2017-12-15T08:40:36.367Z,27.57
2017-12-15T08:41:36.318Z,29.37
2017-12-15T08:42:36.277Z,28.61
2017-12-15T08:43:36.234Z,29.37
2017-12-15T08:44:36.190Z,27.38
2017-12-15T08:45:36.163Z,30.51
2017-12-15T08:46:36.111Z,30.14
2017-12-15T08:47:36.083Z,29.86
2017-12-15T08:48:36.025Z,30.80
2017-12-15T08:49:35.986Z,32.32
2017-12-15T08:50:35.952Z,31.18
2017-12-15T08:51:35.901Z,30.05
2017-12-15T08:52:35.860Z,26.82
2017-12-15T08:53:35.819Z,31.85
2017-12-15T08:54:35.785Z,33.46
2017-12-15T08:55:35.750Z,35.17
2017-12-15T08:56:35.776Z,35.74
2017-12-15T08:57:35.659Z,34.59
2017-12-15T08:58:35.613Z,36.68
2017-12-15T08:59:35.572Z,36.40
2017-12-15T09:00:35.529Z,30.24
2017-12-15T09:01:35.516Z,28.63
2017-12-15T09:02:35.455Z,29.67
2017-12-15T09:03:35.408Z,28.91
2017-12-15T09:04:35.371Z,30.24
2017-12-15T09:05:35.332Z,34.78
2017-12-15T09:06:35.285Z,30.71
2017-12-15T09:07:35.243Z,39.62
2017-12-15T09:08:35.222Z,42.37
2017-12-15T09:09:35.160Z,38.86
2017-12-15T09:10:35.125Z,40.95
2017-12-15T09:11:35.080Z,46.73
2017-12-15T09:12:35.036Z,43.51
2017-12-15T09:13:34.998Z,37.16
2017-12-15T09:14:34.953Z,33.65
2017-12-15T09:15:34.915Z,32.60
2017-12-15T09:16:34.872Z,35.94
2017-12-15T09:17:34.872Z,34.99
2017-12-15T09:18:34.799Z,38.22
2017-12-15T09:19:34.754Z,39.64
2017-12-15T09:20:34.724Z,51.03
2017-12-15T09:21:34.721Z,54.69
2017-12-15T09:22:34.633Z,53.56
2017-12-15T09:23:34.598Z,54.53
2017-12-15T09:24:34.545Z,49.48
2017-12-15T09:25:34.511Z,53.46
2017-12-15T09:26:34.458Z,45.52
2017-12-15T09:27:34.426Z,41.92
2017-12-15T09:28:34.410Z,49.32
2017-12-15T09:29:34.340Z,48.94
2017-12-15T09:30:34.298Z,46.37
2017-12-15T09:31:34.279Z,50.74
2017-12-15T09:32:34.228Z,51.59
2017-12-15T09:33:34.201Z,51.59
2017-12-15T09:34:34.140Z,53.46
2017-12-15T09:35:34.137Z,52.42
2017-12-15T09:36:34.054Z,50.90
2017-12-15T09:37:34.012Z,50.05
2017-12-15T09:38:33.984Z,49.38
2017-12-15T09:39:33.963Z,49.01
2017-12-15T09:40:33.893Z,51.95
2017-12-15T09:41:33.850Z,48.34
2017-12-15T09:42:33.806Z,45.03
2017-12-15T09:43:33.779Z,48.06
2017-12-15T09:44:33.728Z,48.82
2017-12-15T09:45:33.686Z,46.26
2017-12-15T09:46:33.654Z,47.68
2017-12-15T09:47:33.605Z,46.64
2017-12-15T09:48:33.569Z,46.92
2017-12-15T09:49:33.539Z,46.35
2017-12-15T09:50:33.481Z,45.69
2017-12-15T09:51:33.444Z,43.51
2017-12-15T09:52:33.401Z,42.94
2017-12-15T09:53:33.360Z,47.11
2017-12-15T09:54:33.317Z,48.63
2017-12-15T09:55:33.281Z,46.54
2017-12-15T09:56:33.239Z,44.55
2017-12-15T09:57:33.224Z,48.15
2017-12-15T09:58:33.169Z,49.19
2017-12-15T09:59:33.113Z,43.41
2017-12-15T10:00:33.071Z,42.66
2017-12-15T10:01:33.032Z,40.38
2017-12-15T10:02:32.991Z,39.62
2017-12-15T10:03:32.950Z,37.73
2017-12-15T10:04:32.908Z,37.82
2017-12-15T10:05:32.899Z,42.47
2017-12-15T10:06:32.833Z,39.62
2017-12-15T10:07:32.789Z,38.86
2017-12-15T10:08:32.746Z,40.57
2017-12-15T10:09:32.718Z,37.16
2017-12-15T10:10:32.663Z,40.85
2017-12-15T10:11:32.621Z,40.28
2017-12-15T10:12:32.579Z,36.49
2017-12-15T10:13:32.554Z,35.07
2017-12-15T10:14:32.503Z,34.41
2017-12-15T10:15:32.457Z,37.63
2017-12-15T10:16:32.467Z,35.45
2017-12-15T10:17:32.377Z,33.08
2017-12-15T10:18:32.333Z,33.37
2017-12-15T10:19:32.297Z,39.34
2017-12-15T10:20:32.252Z,32.14
2017-12-15T10:21:32.211Z,35.45
2017-12-15T10:22:32.169Z,34.88
2017-12-15T10:23:32.135Z,37.54
2017-12-15T10:24:32.098Z,32.51
2017-12-15T10:25:32.048Z,30.05
2017-12-15T10:26:32.015Z,30.05
2017-12-15T10:27:31.968Z,38.96
2017-12-15T10:28:31.928Z,32.14
2017-12-15T10:29:31.887Z,37.06
2017-12-15T10:30:31.840Z,33.37
2017-12-15T10:31:31.800Z,32.32
2017-12-15T10:32:31.760Z,29.57
2017-12-15T10:33:31.720Z,28.81
2017-12-15T10:34:31.685Z,27.58
2017-12-15T10:35:31.641Z,28.44
2017-12-15T10:36:31.599Z,33.56
2017-12-15T10:37:31.570Z,27.49
2017-12-15T10:38:31.521Z,35.83
2017-12-15T10:39:31.477Z,31.09
2017-12-15T10:40:31.455Z,30.90
2017-12-15T10:41:31.402Z,32.51
2017-12-15T10:42:31.359Z,32.60
2017-12-15T10:43:31.318Z,27.01
2017-12-15T10:44:31.275Z,26.54
2017-12-15T10:45:31.230Z,25.68
2017-12-15T10:46:31.190Z,27.77
2017-12-15T10:47:31.158Z,27.96
2017-12-15T10:48:31.112Z,27.96
2017-12-15T10:49:31.066Z,29.38
2017-12-15T10:50:31.030Z,29.67
2017-12-15T10:51:30.988Z,30.52
2017-12-15T10:52:30.946Z,30.80
2017-12-15T10:53:30.904Z,26.45
2017-12-15T10:54:30.861Z,26.26
2017-12-15T10:55:30.821Z,25.31
2017-12-15T10:56:30.783Z,25.12
2017-12-15T10:57:30.742Z,28.06
2017-12-15T10:58:30.701Z,29.10
2017-12-15T10:59:30.655Z,26.54
2017-12-15T11:00:30.619Z,26.73
2017-12-15T11:01:30.588Z,26.07
2017-12-15T11:02:30.536Z,25.78
2017-12-15T11:03:30.494Z,29.57
2017-12-15T11:04:30.453Z,26.82
2017-12-15T11:05:30.414Z,20.76
2017-12-15T11:06:30.370Z,31.18
2017-12-15T11:07:30.331Z,27.96
2017-12-15T11:08:30.293Z,24.65
2017-12-15T11:09:30.252Z,27.30
2017-12-15T11:10:30.215Z,22.56
2017-12-15T11:11:30.163Z,19.15
2017-12-15T11:12:30.130Z,20.28
2017-12-15T11:13:30.081Z,23.71
2017-12-15T11:14:30.042Z,28.53
2017-12-15T11:15:29.999Z,34.78
2017-12-15T11:16:29.959Z,32.42
2017-12-15T11:17:29.921Z,32.79
2017-12-15T11:18:29.877Z,27.11
2017-12-15T11:19:29.845Z,30.33
2017-12-15T11:20:29.819Z,34.50
2017-12-15T11:21:29.762Z,29.48
2017-12-15T11:22:29.714Z,26.16
2017-12-15T11:23:29.675Z,28.53
2017-12-15T11:24:29.632Z,29.67
2017-12-15T11:25:29.596Z,32.42
2017-12-15T11:26:29.554Z,26.35
2017-12-15T11:27:29.509Z,25.31
2017-12-15T11:28:29.472Z,23.79
2017-12-15T11:29:29.426Z,21.61
2017-12-15T11:30:29.386Z,26.35
2017-12-15T11:31:29.351Z,23.98
2017-12-15T11:32:29.307Z,24.46
2017-12-15T11:33:29.263Z,28.15
2017-12-15T11:34:29.232Z,23.88
2017-12-15T11:35:29.199Z,26.54
2017-12-15T11:36:29.140Z,23.98
2017-12-15T11:37:29.103Z,22.85
2017-12-15T11:38:29.069Z,25.21
2017-12-15T11:39:29.017Z,22.65
2017-12-15T11:40:28.976Z,16.02
2017-12-15T11:41:28.954Z,16.78
2017-12-15T11:42:28.897Z,16.68
2017-12-15T11:43:28.854Z,21.23
2017-12-15T11:44:28.810Z,16.39
2017-12-15T11:45:28.772Z,19.24
2017-12-15T11:46:28.739Z,16.20
2017-12-15T11:47:28.695Z,14.22
2017-12-15T11:48:28.645Z,14.59
2017-12-15T11:49:28.613Z,11.93
2017-12-15T11:50:28.566Z,8.53
2017-12-15T11:51:28.524Z,7.68
2017-12-15T11:52:28.496Z,5.78
2017-12-15T11:53:28.443Z,8.44
2017-12-15T11:54:28.404Z,7.58
2017-12-15T11:55:28.365Z,8.91
2017-12-15T11:56:28.322Z,12.79
2017-12-15T11:57:28.284Z,12.13
2017-12-15T11:58:28.262Z,9.09
2017-12-15T11:59:28.218Z,4.93
2017-12-15T12:00:28.159Z,3.60
2017-12-15T12:01:28.111Z,5.02
2017-12-15T12:02:28.092Z,3.22
2017-12-15T12:03:28.031Z,3.41
2017-12-15T12:04:27.982Z,0.95
2017-12-15T12:05:27.954Z,4.36
2017-12-15T12:06:27.903Z,7.20
2017-12-15T12:07:27.862Z,3.97
2017-12-15T12:08:27.836Z,0.00
2017-12-15T12:09:27.784Z,0.00
2017-12-15T12:10:27.780Z,0.19
2017-12-15T12:11:27.693Z,0.00
2017-12-15T12:12:27.666Z,0.76
2017-12-15T12:13:27.612Z,0.66
2017-12-15T12:14:27.569Z,3.31
2017-12-15T12:15:27.538Z,0.19
2017-12-15T12:16:27.487Z,2.75
2017-12-15T12:17:27.466Z,0.00
2017-12-15T12:18:27.405Z,0.00
2017-12-15T12:19:27.365Z,1.23
2017-12-15T12:20:27.324Z,9.94
2017-12-15T12:21:27.278Z,4.07
2017-12-15T12:22:27.242Z,4.07
2017-12-15T12:23:27.192Z,1.51
2017-12-15T12:24:27.151Z,0.19
2017-12-15T12:25:27.111Z,3.97
2017-12-15T12:26:27.067Z,5.77
2017-12-15T12:27:27.031Z,7.57
2017-12-15T12:28:26.985Z,6.92
2017-12-15T12:29:26.945Z,2.56
2017-12-15T12:30:26.909Z,0.00
2017-12-15T12:31:26.863Z,0.00
2017-12-15T12:32:26.818Z,0.00
2017-12-15T12:33:26.872Z,0.00
2017-12-15T12:34:26.736Z,0.00
2017-12-15T12:35:26.695Z,1.32
2017-12-15T12:36:26.653Z,0.00
2017-12-15T12:37:26.611Z,0.00
2017-12-15T12:38:26.571Z,0.00
2017-12-15T12:39:26.529Z,0.00
2017-12-15T12:40:26.488Z,0.00
2017-12-15T12:41:26.452Z,0.00
2017-12-15T12:42:26.402Z,1.61
2017-12-15T12:43:26.363Z,0.00
2017-12-15T12:44:26.320Z,1.79
2017-12-15T12:45:26.280Z,0.00
2017-12-15T12:46:26.234Z,0.00
2017-12-15T12:47:26.242Z,0.00
2017-12-15T12:48:26.153Z,0.00
2017-12-15T12:49:26.111Z,0.00
2017-12-15T12:50:26.068Z,0.57
2017-12-15T12:51:26.036Z,0.00
2017-12-15T12:52:26.004Z,0.47
2017-12-15T12:53:25.945Z,0.00
2017-12-15T12:54:25.913Z,0.00
2017-12-15T12:55:25.887Z,0.00
2017-12-15T12:56:25.830Z,0.00
2017-12-15T12:57:25.785Z,0.00
2017-12-15T12:58:25.738Z,2.94
2017-12-15T12:59:25.697Z,0.66
2017-12-15T13:00:25.660Z,0.00
2017-12-15T13:01:25.623Z,0.00